Aviation Digital Data Service (ADDS)

Output produced by METARs form (2349 UTC 24 April 2019)
found at http://www.aviationweather.gov/metar/data/
 
Forecast for: KDAL (DALLAS/LOVE FLD , TX, US)
Text: KDAL 242323Z 2500/2524 33007KT 4SM -RA BR SCT050 OVC090
Forecast period: 0000 to 0300 UTC 25 April 2019
Forecast type: FROM: standard forecast or significant change
Winds: from the NNW (330 degrees) at 8 MPH (7 knots; 3.6 m/s)
Visibility: 4 miles (6 km)
Ceiling: 9000 feet AGL
Clouds: scattered clouds at 5000 feet AGL
overcast cloud deck at 9000 feet AGL
Weather: -RA BR  (light rain, mist)
Text: FM250300 32005KT 6SM BR VCSH BKN050 OVC100
Forecast period: 0300 to 0900 UTC 25 April 2019
Forecast type: FROM: standard forecast or significant change
Winds: from the NW (320 degrees) at 6 MPH (5 knots; 2.6 m/s)
Visibility: 6 miles (10 km)
Ceiling: 5000 feet AGL
Clouds: broken clouds at 5000 feet AGL
overcast cloud deck at 10000 feet AGL
Weather: BR VCSH  (mist, showers in vicinity)
Text: FM250900 31010KT P6SM SCT100 BKN250
Forecast period: 0900 UTC 25 April 2019 to 0000 UTC 26 April 2019
Forecast type: FROM: standard forecast or significant change
Winds: from the NW (310 degrees) at 12 MPH (10 knots; 5.1 m/s)
Visibility: 6 or more miles 10+ km)
Ceiling: 25000 feet AGL
Clouds: scattered clouds at 10000 feet AGL
broken clouds at 25000 feet AGL
Weather: no significant weather forecast for this period